Time;durP1;ratioP1;P1;durP2;ratioP2;P2;SDS_P1;SDS_P2;PMS_P1;PMS_P2;Temp;Humidity;BMP_temperature;BMP_pressure;BME280_temperature;BME280_humidity;BME280_pressure;Samples;Min_cycle;Max_cycle;Signal;HPM_P1;HPM_P2
2021/05/28 00:02:08;;;;;;;7.95;3.45;;;8.90;98.10;;;;;;6183720;23;20104;-63
2021/05/28 00:04:34;;;;;;;6.93;3.30;;;8.90;98.20;;;;;;6183209;23;20347;-63
2021/05/28 00:07:00;;;;;;;11.68;3.92;;;8.90;98.30;;;;;;6182688;23;20020;-63
2021/05/28 00:09:25;;;;;;;9.05;3.58;;;8.90;98.30;;;;;;6183790;23;20029;-63
2021/05/28 00:11:51;;;;;;;13.45;3.60;;;8.80;98.30;;;;;;6183169;23;20012;-63
2021/05/28 00:14:17;;;;;;;9.07;4.15;;;8.70;98.40;;;;;;6182210;23;20009;-63
2021/05/28 00:16:43;;;;;;;6.13;3.78;;;8.80;98.40;;;;;;6183253;23;20001;-64
2021/05/28 00:19:08;;;;;;;11.70;4.00;;;8.80;98.50;;;;;;6183359;23;20080;-63
2021/05/28 00:21:34;;;;;;;9.07;4.35;;;8.80;98.50;;;;;;6182343;23;19997;-64
2021/05/28 00:24:00;;;;;;;8.35;4.28;;;8.70;98.50;;;;;;6156665;23;20028;-65
2021/05/28 00:26:26;;;;;;;9.63;5.13;;;8.70;98.50;;;;;;6183580;23;20001;-64
2021/05/28 00:28:51;;;;;;;10.18;4.35;;;8.70;98.40;;;;;;6182042;23;20374;-64
2021/05/28 00:31:18;;;;;;;11.48;4.78;;;8.70;98.50;;;;;;6183116;23;20001;-65
2021/05/28 00:33:44;;;;;;;12.20;5.25;;;8.70;98.60;;;;;;6182852;23;20308;-64
2021/05/28 00:36:10;;;;;;;10.02;4.78;;;8.70;98.60;;;;;;6182636;23;20004;-64
2021/05/28 00:38:36;;;;;;;11.00;5.43;;;8.70;98.50;;;;;;6182894;23;20001;-64
2021/05/28 00:41:01;;;;;;;11.93;5.10;;;8.70;98.50;;;;;;6182303;23;20072;-64
2021/05/28 00:43:27;;;;;;;10.77;6.25;;;8.70;98.60;;;;;;6183541;23;20419;-64
2021/05/28 00:45:53;;;;;;;13.40;5.35;;;8.70;98.60;;;;;;6182758;23;20004;-65
2021/05/28 00:48:18;;;;;;;11.63;5.45;;;8.70;98.60;;;;;;6156064;23;20095;-64
2021/05/28 00:50:44;;;;;;;15.63;6.38;;;8.70;98.60;;;;;;6182640;23;20031;-63
2021/05/28 00:53:10;;;;;;;10.88;5.25;;;8.70;98.60;;;;;;6183308;23;20009;-64
2021/05/28 00:55:36;;;;;;;12.55;5.07;;;8.70;98.70;;;;;;6155671;23;20021;-65
2021/05/28 00:58:02;;;;;;;15.68;5.75;;;8.70;98.70;;;;;;6183372;23;20005;-64
2021/05/28 01:00:30;;;;;;;10.95;5.85;;;8.70;98.60;;;;;;6183149;23;20005;-63
2021/05/28 01:02:56;;;;;;;11.40;5.78;;;8.70;98.60;;;;;;6182176;23;20079;-64
2021/05/28 01:05:22;;;;;;;10.68;5.30;;;8.70;98.60;;;;;;6182949;23;20043;-64
2021/05/28 01:07:47;;;;;;;14.30;5.70;;;8.60;98.60;;;;;;6182882;23;20008;-63
2021/05/28 01:10:14;;;;;;;11.32;5.43;;;8.60;98.70;;;;;;6182259;23;20020;-63
2021/05/28 01:12:40;;;;;;;11.25;5.63;;;8.60;98.60;;;;;;6156425;23;20008;-65
2021/05/28 01:15:08;;;;;;;11.75;5.75;;;8.60;98.60;;;;;;6182874;23;20012;-64
2021/05/28 01:17:33;;;;;;;10.63;6.00;;;8.60;98.70;;;;;;6181725;23;19997;-63
2021/05/28 01:19:59;;;;;;;10.07;5.45;;;8.50;98.70;;;;;;6182759;23;20063;-63
2021/05/28 01:22:25;;;;;;;9.02;5.55;;;8.50;98.70;;;;;;6183131;23;20009;-64
2021/05/28 01:24:50;;;;;;;8.48;5.00;;;8.50;98.70;;;;;;6181329;23;20025;-64
2021/05/28 01:27:17;;;;;;;12.45;5.43;;;8.50;98.60;;;;;;6182500;23;20051;-63
2021/05/28 01:29:43;;;;;;;12.38;6.32;;;8.50;98.60;;;;;;6182570;23;20001;-65
2021/05/28 01:32:10;;;;;;;13.48;7.20;;;8.50;98.60;;;;;;6155506;23;20449;-65
2021/05/28 01:34:35;;;;;;;16.25;7.30;;;8.60;98.70;;;;;;6182224;23;20028;-65
2021/05/28 01:37:01;;;;;;;18.35;7.20;;;8.70;98.70;;;;;;6182994;23;20427;-64
2021/05/28 01:39:27;;;;;;;14.60;8.23;;;8.90;98.70;;;;;;6182019;23;20422;-65
2021/05/28 01:41:52;;;;;;;17.30;8.50;;;9.00;98.60;;;;;;6182581;23;20044;-64
2021/05/28 01:44:18;;;;;;;15.82;9.18;;;9.10;98.50;;;;;;6182160;23;20009;-64
2021/05/28 01:46:44;;;;;;;18.13;8.93;;;9.20;98.40;;;;;;6182759;23;20434;-64
2021/05/28 01:49:09;;;;;;;14.63;7.85;;;9.20;98.30;;;;;;6182769;23;20005;-63
2021/05/28 01:51:35;;;;;;;15.18;8.75;;;9.20;98.20;;;;;;6181586;23;20001;-64
2021/05/28 01:54:01;;;;;;;20.15;8.10;;;9.20;98.20;;;;;;6182570;23;20025;-63
2021/05/28 01:56:27;;;;;;;27.92;8.88;;;9.20;98.20;;;;;;6182907;23;19997;-64
2021/05/28 01:58:54;;;;;;;23.52;9.80;;;9.10;98.10;;;;;;6181469;23;20009;-64
2021/05/28 02:01:19;;;;;;;15.60;9.32;;;9.10;98.10;;;;;;6156283;23;20009;-63
2021/05/28 02:03:45;;;;;;;33.25;10.07;;;9.10;98.20;;;;;;6182420;23;20005;-64
2021/05/28 02:06:10;;;;;;;29.55;10.20;;;9.10;98.20;;;;;;6182150;23;20017;-63
2021/05/28 02:08:37;;;;;;;23.80;9.75;;;9.00;98.10;;;;;;6182350;23;20357;-64
2021/05/28 02:11:03;;;;;;;12.93;8.77;;;9.00;98.20;;;;;;6182521;23;20052;-64
2021/05/28 02:13:29;;;;;;;20.95;9.70;;;9.00;98.20;;;;;;6181960;23;20337;-65
2021/05/28 02:15:54;;;;;;;27.90;10.07;;;9.00;98.20;;;;;;6182343;23;19997;-64
2021/05/28 02:18:22;;;;;;;13.13;10.20;;;8.90;98.20;;;;;;6182879;23;20016;-66
2021/05/28 02:20:48;;;;;;;16.27;9.23;;;8.90;98.20;;;;;;6181482;23;19997;-65
2021/05/28 02:23:14;;;;;;;22.30;9.70;;;9.00;98.30;;;;;;6182346;23;20005;-65
2021/05/28 02:25:39;;;;;;;15.27;9.40;;;9.10;98.30;;;;;;6182206;23;20489;-65
2021/05/28 02:28:05;;;;;;;24.38;10.15;;;9.10;98.20;;;;;;6181676;23;20031;-65
2021/05/28 02:30:30;;;;;;;14.23;10.05;;;9.10;98.20;;;;;;6182844;23;20370;-64
2021/05/28 02:32:57;;;;;;;13.73;10.18;;;9.20;98.20;;;;;;6182363;23;20063;-64
2021/05/28 02:35:22;;;;;;;13.23;10.00;;;9.20;98.10;;;;;;6181853;23;20028;-64
2021/05/28 02:37:48;;;;;;;11.15;9.93;;;9.30;98.10;;;;;;6182274;23;20004;-64
2021/05/28 02:40:14;;;;;;;21.05;10.07;;;9.30;98.00;;;;;;6184104;23;20001;-64
2021/05/28 02:42:39;;;;;;;17.52;10.15;;;9.40;97.90;;;;;;6183360;23;20005;-64
2021/05/28 02:45:06;;;;;;;16.52;9.48;;;9.40;97.80;;;;;;6184179;23;20001;-64
2021/05/28 02:47:32;;;;;;;11.20;10.00;;;9.40;97.70;;;;;;6183285;23;20009;-65
2021/05/28 02:49:59;;;;;;;12.88;9.85;;;9.40;97.70;;;;;;6184450;23;20076;-65
2021/05/28 02:52:24;;;;;;;11.75;10.10;;;9.40;97.60;;;;;;6184415;23;20009;-63
2021/05/28 02:54:50;;;;;;;12.68;9.80;;;9.40;97.60;;;;;;6183150;23;20428;-63
2021/05/28 02:57:15;;;;;;;11.02;9.80;;;9.30;97.60;;;;;;6184273;23;20005;-64
2021/05/28 02:59:41;;;;;;;11.95;9.50;;;9.30;97.60;;;;;;6183899;23;20464;-64
2021/05/28 03:02:06;;;;;;;11.88;9.85;;;9.30;97.60;;;;;;6157218;23;20001;-63
2021/05/28 03:04:32;;;;;;;12.30;10.57;;;9.30;97.70;;;;;;6183856;23;20036;-63
2021/05/28 03:06:58;;;;;;;14.35;9.88;;;9.30;97.70;;;;;;6183999;23;20005;-64
2021/05/28 03:09:23;;;;;;;11.80;9.57;;;9.30;97.60;;;;;;6183677;23;20002;-64
2021/05/28 03:11:49;;;;;;;14.10;10.77;;;9.30;97.60;;;;;;6183973;23;20016;-64
2021/05/28 03:14:16;;;;;;;15.98;10.50;;;9.30;97.70;;;;;;6184397;23;20330;-62
2021/05/28 03:16:42;;;;;;;11.82;10.25;;;9.30;97.70;;;;;;6183182;23;19997;-63
2021/05/28 03:19:16;;;;;;;14.45;9.00;;;9.30;97.60;;;;;;6183986;23;20011;-63
2021/05/28 03:24:27;;;;;;;10.75;9.32;;;9.30;97.60;;;;;;6151872;23;20350;-63
2021/05/28 03:26:53;;;;;;;17.65;9.48;;;9.30;97.50;;;;;;6184239;23;20001;-63
2021/05/28 03:29:19;;;;;;;16.80;9.35;;;9.30;97.50;;;;;;6183866;23;20537;-65
2021/05/28 03:31:44;;;;;;;14.32;9.52;;;9.30;97.50;;;;;;6156691;23;20005;-62
2021/05/28 03:34:10;;;;;;;13.70;10.25;;;9.20;97.60;;;;;;6183493;23;20430;-63
2021/05/28 03:36:36;;;;;;;12.52;9.57;;;9.20;97.60;;;;;;6183579;23;19997;-65
2021/05/28 03:39:02;;;;;;;13.95;9.05;;;9.30;97.70;;;;;;6182964;23;20008;-64
2021/05/28 03:41:28;;;;;;;18.33;9.70;;;9.30;97.60;;;;;;6157510;23;20004;-64
2021/05/28 03:43:53;;;;;;;34.35;10.90;;;9.40;97.60;;;;;;6182636;23;20001;-64
2021/05/28 03:46:19;;;;;;;19.33;9.60;;;9.40;97.60;;;;;;6183701;23;20012;-66
2021/05/28 03:48:44;;;;;;;13.48;9.07;;;9.40;97.50;;;;;;6183952;23;20001;-63
2021/05/28 03:51:11;;;;;;;30.02;10.93;;;9.40;97.50;;;;;;6182781;23;20333;-65
2021/05/28 03:53:37;;;;;;;11.55;10.07;;;9.40;97.50;;;;;;6183327;23;20013;-63
2021/05/28 03:56:02;;;;;;;17.88;10.25;;;9.40;97.40;;;;;;6183570;23;20075;-63
2021/05/28 03:58:28;;;;;;;15.20;10.02;;;9.40;97.40;;;;;;6182878;23;20001;-63
2021/05/28 04:00:53;;;;;;;23.75;11.05;;;9.50;97.40;;;;;;6183601;23;19997;-63
2021/05/28 04:03:19;;;;;;;15.75;10.30;;;9.50;97.40;;;;;;6183574;23;20001;-63
2021/05/28 04:05:44;;;;;;;22.27;10.35;;;9.60;97.40;;;;;;6182404;23;20052;-63
2021/05/28 04:08:10;;;;;;;20.52;10.30;;;9.60;97.40;;;;;;6183799;23;20009;-64
2021/05/28 04:10:35;;;;;;;16.98;11.48;;;9.70;97.30;;;;;;6183260;23;20052;-64
2021/05/28 04:13:01;;;;;;;16.98;11.75;;;9.70;97.30;;;;;;6156000;23;20017;-64
2021/05/28 04:15:26;;;;;;;18.55;10.70;;;9.80;97.20;;;;;;6183689;23;20001;-64
2021/05/28 04:17:52;;;;;;;15.73;11.05;;;9.80;97.20;;;;;;6183188;23;20013;-66
2021/05/28 04:20:17;;;;;;;17.98;11.75;;;9.90;97.10;;;;;;6155946;23;20084;-64
2021/05/28 04:22:44;;;;;;;20.23;11.25;;;9.90;97.10;;;;;;6183325;23;20016;-64
2021/05/28 04:25:10;;;;;;;17.20;11.10;;;9.90;97.10;;;;;;6183129;23;20023;-65
2021/05/28 04:27:36;;;;;;;18.85;11.70;;;10.00;97.00;;;;;;6182404;23;19997;-63
2021/05/28 04:30:02;;;;;;;20.10;11.55;;;10.00;97.00;;;;;;6183530;23;20001;-65
2021/05/28 04:32:28;;;;;;;20.05;10.98;;;10.10;97.00;;;;;;6183493;23;20370;-65
2021/05/28 04:34:53;;;;;;;16.50;11.35;;;10.10;96.80;;;;;;6182298;23;20486;-62
2021/05/28 04:37:19;;;;;;;19.40;11.95;;;10.00;96.90;;;;;;6183298;23;20001;-64
2021/05/28 04:39:44;;;;;;;17.23;9.98;;;10.10;96.90;;;;;;6183045;23;20012;-64
2021/05/28 04:42:12;;;;;;;13.82;10.80;;;10.10;96.80;;;;;;6182717;23;20031;-64
2021/05/28 04:44:38;;;;;;;13.98;11.50;;;10.10;96.80;;;;;;6183048;23;20011;-64
2021/05/28 04:47:03;;;;;;;22.70;10.68;;;10.10;96.90;;;;;;6182335;23;20072;-64
2021/05/28 04:49:29;;;;;;;15.23;10.05;;;10.10;96.90;;;;;;6156976;23;20009;-65
2021/05/28 04:51:55;;;;;;;17.67;10.40;;;10.10;96.70;;;;;;6182895;23;20072;-64
2021/05/28 04:54:20;;;;;;;16.48;9.55;;;10.10;96.60;;;;;;6182305;23;20485;-62
2021/05/28 04:56:46;;;;;;;18.08;10.52;;;10.10;96.80;;;;;;6182792;23;20008;-64
2021/05/28 04:59:11;;;;;;;21.27;10.13;;;10.10;96.60;;;;;;6182950;23;20005;-63
2021/05/28 05:01:37;;;;;;;12.13;9.75;;;10.10;96.50;;;;;;6181564;23;20007;-63
2021/05/28 05:04:03;;;;;;;14.07;9.90;;;10.00;96.40;;;;;;6156072;23;20008;-63
2021/05/28 05:06:28;;;;;;;12.25;9.45;;;10.10;96.40;;;;;;6183163;23;20377;-62
2021/05/28 05:08:54;;;;;;;13.10;9.35;;;10.10;96.50;;;;;;6181927;23;20482;-62
2021/05/28 05:11:19;;;;;;;15.02;9.48;;;10.30;96.50;;;;;;6182815;23;20427;-62
2021/05/28 05:13:45;;;;;;;14.13;9.48;;;10.30;96.20;;;;;;6182173;23;20016;-63
2021/05/28 05:16:10;;;;;;;10.10;9.00;;;10.30;96.20;;;;;;6155953;23;20453;-62
2021/05/28 05:18:36;;;;;;;12.15;9.25;;;10.40;96.10;;;;;;6182599;23;20051;-62
2021/05/28 05:21:02;;;;;;;11.85;8.77;;;10.50;96.10;;;;;;6182692;23;20005;-62
2021/05/28 05:23:27;;;;;;;12.13;9.18;;;10.50;96.10;;;;;;6182173;23;20005;-63
2021/05/28 05:25:53;;;;;;;18.00;9.18;;;10.60;96.00;;;;;;6181844;23;20377;-63
2021/05/28 05:28:18;;;;;;;12.45;9.05;;;10.60;95.80;;;;;;6182538;23;20547;-64
2021/05/28 05:30:44;;;;;;;10.10;8.75;;;10.60;95.70;;;;;;6181821;23;20027;-62
2021/05/28 05:33:11;;;;;;;11.38;9.07;;;10.60;95.80;;;;;;6182727;23;20020;-64
2021/05/28 05:35:37;;;;;;;11.57;9.13;;;10.70;95.90;;;;;;6182836;23;19998;-62
2021/05/28 05:38:07;;;;;;;9.93;8.45;;;10.70;95.70;;;;;;6182068;23;20005;-64
2021/05/28 05:40:33;;;;;;;11.00;7.88;;;10.70;95.40;;;;;;6182261;23;19997;-64
2021/05/28 05:42:58;;;;;;;10.10;7.95;;;10.70;95.20;;;;;;6182571;23;20048;-63
2021/05/28 05:45:24;;;;;;;9.30;8.02;;;10.60;95.20;;;;;;6182279;23;20009;-64
2021/05/28 05:47:49;;;;;;;9.63;8.35;;;10.60;95.30;;;;;;6182267;23;20009;-64
2021/05/28 05:50:15;;;;;;;10.90;8.10;;;10.70;95.40;;;;;;6182517;23;20004;-62
2021/05/28 05:52:41;;;;;;;9.65;8.32;;;10.80;95.30;;;;;;6181926;23;20005;-64
2021/05/28 05:55:07;;;;;;;11.32;9.15;;;10.80;95.20;;;;;;6182712;23;20005;-64
2021/05/28 05:57:33;;;;;;;12.90;8.80;;;10.80;95.20;;;;;;6181589;23;20021;-64
2021/05/28 05:59:58;;;;;;;11.48;8.25;;;10.80;95.10;;;;;;6182599;23;19997;-62
2021/05/28 06:02:24;;;;;;;11.50;9.15;;;10.90;95.20;;;;;;6182942;23;20052;-63
2021/05/28 06:04:49;;;;;;;10.02;8.32;;;11.00;95.10;;;;;;6154705;23;20009;-62
2021/05/28 06:07:15;;;;;;;9.68;8.68;;;11.00;94.90;;;;;;6182510;23;20407;-63
2021/05/28 06:09:40;;;;;;;10.88;8.77;;;11.20;94.90;;;;;;6182366;23;20005;-63
2021/05/28 06:12:08;;;;;;;10.00;8.68;;;11.20;94.60;;;;;;6181834;23;20414;-64
2021/05/28 06:14:33;;;;;;;12.90;9.68;;;11.20;94.40;;;;;;6183743;23;20013;-64
2021/05/28 06:16:59;;;;;;;10.63;9.40;;;11.20;94.30;;;;;;6184443;23;20474;-64
2021/05/28 06:19:25;;;;;;;11.40;8.82;;;11.30;94.40;;;;;;6183581;23;20012;-62
2021/05/28 06:21:51;;;;;;;9.95;8.77;;;11.50;94.30;;;;;;6184122;23;20036;-63
2021/05/28 06:24:16;;;;;;;9.95;8.95;;;11.60;93.90;;;;;;6184216;23;20013;-62
2021/05/28 06:26:42;;;;;;;11.18;9.25;;;11.60;93.80;;;;;;6183083;23;20001;-61
2021/05/28 06:29:07;;;;;;;9.57;8.63;;;11.70;93.80;;;;;;6184355;23;20033;-62
2021/05/28 06:31:34;;;;;;;10.52;8.90;;;11.60;93.60;;;;;;6184121;23;20005;-62
2021/05/28 06:34:00;;;;;;;77.63;11.85;;;11.70;93.60;;;;;;6183336;23;20059;-63
2021/05/28 06:36:26;;;;;;;12.13;9.20;;;11.80;93.80;;;;;;6184558;23;20435;-62
2021/05/28 06:38:52;;;;;;;10.32;8.98;;;11.90;93.50;;;;;;6183914;23;20012;-63
2021/05/28 06:41:18;;;;;;;8.48;7.45;;;12.00;93.40;;;;;;6183377;23;20001;-62
2021/05/28 06:43:44;;;;;;;8.95;8.05;;;12.10;93.20;;;;;;6183695;23;20422;-63
2021/05/28 06:46:09;;;;;;;8.85;8.00;;;12.00;92.90;;;;;;6183792;23;20012;-63
2021/05/28 06:48:35;;;;;;;9.45;8.15;;;12.00;93.00;;;;;;6182996;23;20001;-62
2021/05/28 06:51:00;;;;;;;8.90;7.80;;;12.00;93.20;;;;;;6184059;23;20009;-67
2021/05/28 06:53:26;;;;;;;9.95;7.85;;;12.00;93.10;;;;;;6179494;23;20087;-63
2021/05/28 06:55:52;;;;;;;10.02;8.60;;;12.00;92.90;;;;;;6182766;23;20074;-63
2021/05/28 06:58:20;;;;;;;11.05;8.80;;;12.00;92.90;;;;;;6183272;23;20478;-63
2021/05/28 07:00:46;;;;;;;8.23;7.35;;;12.10;92.80;;;;;;6182586;23;20072;-65
2021/05/28 07:03:12;;;;;;;9.40;8.05;;;12.00;92.60;;;;;;6183601;23;20496;-64
2021/05/28 07:05:37;;;;;;;9.10;7.75;;;12.00;92.60;;;;;;6181788;23;20411;-63
2021/05/28 07:08:03;;;;;;;9.57;8.57;;;12.00;92.70;;;;;;6181863;23;20005;-63
2021/05/28 07:10:29;;;;;;;7.95;7.15;;;12.00;93.00;;;;;;6183575;23;20001;-63
2021/05/28 07:12:55;;;;;;;9.30;7.45;;;12.00;93.30;;;;;;6182944;23;20455;-64
2021/05/28 07:15:20;;;;;;;9.35;8.10;;;12.00;93.40;;;;;;6156782;23;20075;-65
2021/05/28 07:17:47;;;;;;;9.52;8.02;;;12.00;93.40;;;;;;6182675;23;20040;-64
2021/05/28 07:20:14;;;;;;;9.13;7.72;;;12.00;93.50;;;;;;6183676;23;20008;-62
2021/05/28 07:22:39;;;;;;;9.13;8.23;;;12.10;93.40;;;;;;6182771;23;20033;-63
2021/05/28 07:25:06;;;;;;;8.63;7.45;;;12.00;93.20;;;;;;6183089;23;20067;-63
2021/05/28 07:27:31;;;;;;;8.43;7.10;;;12.10;93.40;;;;;;6183488;23;20016;-65
2021/05/28 07:29:57;;;;;;;9.27;8.32;;;12.10;93.40;;;;;;6156281;23;20091;-63
2021/05/28 07:32:23;;;;;;;11.45;7.55;;;12.20;93.20;;;;;;6183386;23;20421;-69
2021/05/28 07:34:49;;;;;;;9.05;8.23;;;12.30;93.20;;;;;;6183176;23;20019;-68
2021/05/28 07:37:15;;;;;;;9.73;8.32;;;12.30;93.10;;;;;;6182977;23;20001;-65
2021/05/28 07:39:41;;;;;;;10.35;8.10;;;12.40;92.60;;;;;;6183062;23;20016;-64
2021/05/28 07:42:06;;;;;;;8.98;8.07;;;12.50;92.70;;;;;;6183242;23;19997;-68
2021/05/28 07:44:32;;;;;;;8.98;8.13;;;12.60;92.80;;;;;;6181330;23;20005;-65
2021/05/28 07:46:58;;;;;;;9.23;8.32;;;12.70;92.70;;;;;;6183286;23;20025;-66
2021/05/28 07:49:24;;;;;;;9.63;8.50;;;12.70;92.70;;;;;;6182917;23;20430;-65
2021/05/28 07:51:49;;;;;;;9.40;8.15;;;12.80;92.50;;;;;;6181997;23;20326;-65
2021/05/28 07:54:16;;;;;;;8.80;7.60;;;12.90;92.50;;;;;;6183045;23;20020;-65
2021/05/28 07:56:42;;;;;;;9.45;7.97;;;12.90;92.70;;;;;;6182950;23;20001;-65
2021/05/28 07:59:08;;;;;;;9.73;8.40;;;13.10;92.60;;;;;;6182688;23;20005;-65
2021/05/28 08:01:33;;;;;;;8.18;7.22;;;13.10;92.60;;;;;;6183354;23;20001;-65
2021/05/28 08:03:59;;;;;;;10.68;8.98;;;13.20;92.50;;;;;;6182104;23;20342;-65
2021/05/28 08:06:25;;;;;;;11.88;8.68;;;13.30;92.30;;;;;;6183864;23;20075;-68
2021/05/28 08:08:51;;;;;;;9.60;8.48;;;13.40;92.30;;;;;;6156419;23;20044;-64
2021/05/28 08:11:17;;;;;;;12.27;8.60;;;13.40;92.20;;;;;;6182499;23;20004;-63
2021/05/28 08:13:42;;;;;;;13.02;7.97;;;13.50;92.20;;;;;;6182295;23;20069;-65
2021/05/28 08:16:08;;;;;;;9.23;7.82;;;13.50;92.00;;;;;;6157126;23;20005;-64
2021/05/28 08:18:34;;;;;;;8.98;8.07;;;13.60;91.60;;;;;;6181542;23;20330;-65
2021/05/28 08:21:03;;;;;;;10.98;8.05;;;13.60;91.70;;;;;;6182835;23;20587;-65
2021/05/28 08:23:28;;;;;;;12.52;8.23;;;13.70;91.90;;;;;;6183299;23;20001;-64
2021/05/28 08:25:54;;;;;;;8.90;7.80;;;13.80;91.70;;;;;;6180647;23;20377;-63
2021/05/28 08:28:20;;;;;;;9.57;7.53;;;13.90;91.30;;;;;;6183358;23;20004;-62
2021/05/28 08:30:46;;;;;;;12.40;7.30;;;13.90;91.10;;;;;;6182988;23;20001;-66
2021/05/28 08:33:12;;;;;;;7.88;7.07;;;14.00;90.90;;;;;;6182016;23;20012;-63
2021/05/28 08:35:43;;;;;;;8.65;7.55;;;14.10;90.80;;;;;;6156753;23;20032;-62
2021/05/28 08:38:09;;;;;;;10.55;7.72;;;14.20;90.50;;;;;;6183298;23;20075;-63
2021/05/28 08:40:35;;;;;;;10.23;6.47;;;14.20;90.20;;;;;;6182217;23;20025;-64
2021/05/28 08:43:03;;;;;;;7.95;6.65;;;14.30;90.60;;;;;;6182685;23;20009;-65
2021/05/28 08:45:35;;;;;;;8.45;7.15;;;14.40;90.70;;;;;;6183053;23;19997;-63
2021/05/28 08:48:03;;;;;;;9.23;6.57;;;14.50;90.10;;;;;;6181944;23;20016;-64
2021/05/28 08:50:29;;;;;;;7.25;6.10;;;14.50;89.20;;;;;;6183247;23;20457;-64
2021/05/28 08:52:54;;;;;;;7.38;6.65;;;14.60;89.40;;;;;;6182694;23;20009;-64
2021/05/28 08:55:20;;;;;;;6.63;5.70;;;14.60;88.70;;;;;;6182159;23;20001;-65
2021/05/28 08:57:46;;;;;;;7.50;6.80;;;14.70;88.80;;;;;;6182662;23;20001;-65
2021/05/28 09:00:12;;;;;;;8.55;5.90;;;14.80;88.50;;;;;;6156136;23;20005;-63
2021/05/28 09:02:39;;;;;;;8.27;6.68;;;14.80;87.10;;;;;;6182448;23;20409;-64
2021/05/28 09:05:09;;;;;;;8.68;7.15;;;14.90;87.00;;;;;;6182817;23;20005;-65
2021/05/28 09:07:37;;;;;;;10.63;6.63;;;14.90;87.40;;;;;;6181843;23;20008;-64
2021/05/28 09:10:33;;;;;;;8.25;7.32;;;15.00;87.00;;;;;;6182865;23;20005;-64
2021/05/28 09:13:18;;;;;;;8.68;6.95;;;15.10;86.30;;;;;;6182549;23;20016;-64
2021/05/28 09:15:47;;;;;;;9.50;6.57;;;15.20;86.40;;;;;;6181767;23;20051;-65
2021/05/28 09:18:13;;;;;;;9.70;7.05;;;15.20;85.10;;;;;;6182721;23;20486;-62
2021/05/28 09:20:40;;;;;;;6.97;6.25;;;15.30;85.30;;;;;;6156137;23;20009;-64
2021/05/28 09:23:07;;;;;;;6.95;5.30;;;15.40;84.60;;;;;;6181996;23;20466;-65
2021/05/28 09:25:50;;;;;;;7.63;5.60;;;15.40;83.90;;;;;;6182478;23;20055;-63
2021/05/28 09:28:16;;;;;;;7.47;6.10;;;15.50;84.50;;;;;;6182676;23;20001;-66
2021/05/28 09:30:42;;;;;;;6.30;5.43;;;15.60;85.40;;;;;;6155384;23;20015;-65
2021/05/28 09:33:18;;;;;;;7.25;6.25;;;15.70;83.70;;;;;;6182444;23;20009;-63
2021/05/28 09:35:44;;;;;;;6.55;5.40;;;15.80;83.20;;;;;;6181520;23;20011;-62
2021/05/28 09:38:09;;;;;;;7.25;5.53;;;15.90;83.70;;;;;;6182667;23;20032;-65
2021/05/28 09:40:42;;;;;;;7.15;5.00;;;16.00;83.30;;;;;;6182160;23;20021;-63
2021/05/28 09:43:13;;;;;;;7.22;4.40;;;16.10;82.00;;;;;;6181983;23;20422;-63
2021/05/28 09:45:39;;;;;;;6.00;4.13;;;16.20;81.40;;;;;;6182407;23;20048;-63
2021/05/28 09:48:27;;;;;;;6.15;4.30;;;16.20;79.90;;;;;;6183445;23;20051;-63
2021/05/28 09:50:55;;;;;;;6.13;4.20;;;16.30;81.10;;;;;;6157237;23;20028;-64
2021/05/28 09:53:32;;;;;;;4.05;3.40;;;16.40;81.40;;;;;;6185044;23;20049;-65
2021/05/28 09:56:00;;;;;;;4.53;3.92;;;16.50;80.50;;;;;;6185365;23;20005;-65
2021/05/28 09:58:25;;;;;;;4.05;2.92;;;16.50;77.00;;;;;;6157469;23;20517;-65
2021/05/28 10:00:51;;;;;;;4.57;3.17;;;16.50;75.30;;;;;;6184145;23;20044;-63
2021/05/28 10:03:22;;;;;;;3.80;2.80;;;16.50;74.40;;;;;;6184578;23;19997;-64
2021/05/28 10:05:51;;;;;;;3.05;2.75;;;16.60;75.30;;;;;;6183415;23;20005;-64
2021/05/28 10:08:19;;;;;;;3.00;2.50;;;16.70;75.10;;;;;;6184459;23;20001;-64
2021/05/28 10:10:46;;;;;;;4.05;2.25;;;16.70;73.50;;;;;;6183533;23;20008;-64
2021/05/28 10:13:14;;;;;;;3.25;2.30;;;16.80;74.10;;;;;;6184315;23;20012;-63
2021/05/28 10:15:51;;;;;;;2.80;2.35;;;16.90;73.70;;;;;;6184166;23;20080;-64
2021/05/28 10:18:18;;;;;;;2.95;2.65;;;17.00;73.90;;;;;;6183807;23;20009;-64
2021/05/28 10:20:46;;;;;;;3.35;2.47;;;17.20;74.20;;;;;;6183935;23;19997;-64
2021/05/28 10:23:12;;;;;;;3.53;2.95;;;17.30;73.90;;;;;;6181398;23;20393;-63
2021/05/28 10:25:39;;;;;;;3.20;2.90;;;17.40;73.80;;;;;;6184223;23;20013;-63
2021/05/28 10:28:22;;;;;;;3.40;2.30;;;17.50;70.40;;;;;;6184370;23;20012;-64
2021/05/28 10:30:52;;;;;;;3.17;2.70;;;17.50;71.10;;;;;;6182697;23;20128;-63
2021/05/28 10:33:20;;;;;;;2.28;2.03;;;17.50;68.00;;;;;;6183618;23;20009;-63
2021/05/28 10:35:49;;;;;;;4.57;2.08;;;17.50;68.80;;;;;;6183953;23;20087;-63
2021/05/28 10:38:30;;;;;;;3.28;1.98;;;17.50;71.80;;;;;;6183344;23;20005;-63
2021/05/28 10:41:17;;;;;;;2.72;2.13;;;17.60;71.20;;;;;;6183659;23;20001;-63
2021/05/28 10:43:48;;;;;;;3.80;2.13;;;17.60;70.00;;;;;;6168344;23;20072;-63
2021/05/28 10:46:15;;;;;;;4.35;2.25;;;17.70;70.70;;;;;;6183361;23;20103;-63
2021/05/28 10:48:41;;;;;;;2.30;2.10;;;17.80;71.30;;;;;;6183569;23;20001;-66
2021/05/28 10:51:16;;;;;;;3.15;2.50;;;17.90;71.80;;;;;;6182839;23;20139;-63
2021/05/28 10:54:01;;;;;;;3.35;2.90;;;17.90;71.60;;;;;;6183626;23;20013;-64
2021/05/28 10:56:36;;;;;;;3.33;3.03;;;18.00;68.00;;;;;;6157738;23;20308;-64
2021/05/28 10:59:15;;;;;;;4.05;2.47;;;17.90;68.50;;;;;;6182986;23;20072;-64
2021/05/28 11:01:46;;;;;;;3.47;2.60;;;17.90;69.10;;;;;;6183655;23;20001;-64
2021/05/28 11:04:14;;;;;;;2.83;2.55;;;18.00;69.10;;;;;;6183748;23;20415;-64
2021/05/28 11:07:12;;;;;;;5.38;3.08;;;18.10;70.30;;;;;;6182777;23;20072;-63
2021/05/28 11:09:47;;;;;;;4.97;3.15;;;18.20;70.60;;;;;;6133364;23;20300;-64
2021/05/28 11:12:26;;;;;;;3.35;3.00;;;18.30;70.70;;;;;;6178694;23;20001;-64
2021/05/28 11:15:04;;;;;;;5.63;2.90;;;18.30;70.30;;;;;;6183117;23;20013;-70
2021/05/28 11:17:30;;;;;;;3.03;2.33;;;18.40;70.20;;;;;;6183813;23;20008;-68
2021/05/28 11:20:00;;;;;;;2.72;2.30;;;18.40;68.10;;;;;;6182505;23;20025;-65
2021/05/28 11:22:30;;;;;;;2.60;2.38;;;18.40;68.00;;;;;;6184082;23;19997;-66
2021/05/28 11:25:00;;;;;;;4.35;2.90;;;18.50;68.30;;;;;;6183206;23;20101;-65
2021/05/28 11:27:26;;;;;;;4.13;2.58;;;18.50;66.30;;;;;;6182339;23;20004;-65
2021/05/28 11:30:01;;;;;;;3.05;2.33;;;18.50;67.40;;;;;;6182321;23;20439;-70
2021/05/28 11:32:31;;;;;;;2.60;2.25;;;18.50;67.00;;;;;;6156691;23;20041;-68
2021/05/28 11:35:16;;;;;;;3.90;2.20;;;18.50;66.70;;;;;;6182195;23;20286;-67
2021/05/28 11:38:00;;;;;;;4.50;2.65;;;18.60;66.60;;;;;;6183230;23;20032;-66
2021/05/28 11:40:44;;;;;;;3.28;2.17;;;18.60;67.00;;;;;;6156532;23;20047;-68
2021/05/28 11:43:18;;;;;;;3.85;2.67;;;18.70;68.00;;;;;;6183471;23;19997;-65
2021/05/28 11:45:50;;;;;;;4.95;2.25;;;18.80;66.30;;;;;;6182869;23;20333;-64
2021/05/28 11:48:18;;;;;;;4.57;2.40;;;18.80;65.50;;;;;;6181495;23;20338;-65
2021/05/28 11:51:02;;;;;;;3.40;2.10;;;18.80;65.20;;;;;;6182394;23;20076;-64
2021/05/28 11:53:33;;;;;;;1.83;1.70;;;18.90;64.80;;;;;;6183061;23;20462;-64
2021/05/28 11:56:00;;;;;;;5.95;2.30;;;18.90;65.10;;;;;;6182761;23;20005;-63
2021/05/28 11:58:28;;;;;;;3.75;1.77;;;19.00;65.20;;;;;;6183493;23;20451;-64
2021/05/28 12:00:55;;;;;;;1.70;1.60;;;19.20;62.80;;;;;;6183173;23;19997;-65
2021/05/28 12:03:22;;;;;;;2.53;2.25;;;19.20;62.10;;;;;;6182707;23;20008;-66
2021/05/28 12:05:49;;;;;;;3.10;1.70;;;19.20;63.30;;;;;;6182963;23;20029;-63
2021/05/28 12:08:15;;;;;;;2.33;1.70;;;19.30;62.60;;;;;;6183301;23;20033;-63
2021/05/28 12:10:56;;;;;;;2.75;2.05;;;19.40;61.50;;;;;;6181975;23;20005;-64
2021/05/28 12:13:26;;;;;;;3.17;2.20;;;19.50;60.50;;;;;;6182910;23;20013;-63
2021/05/28 12:15:58;;;;;;;2.85;1.90;;;19.30;57.60;;;;;;6181807;23;20008;-64
2021/05/28 12:18:28;;;;;;;1.83;1.60;;;19.20;58.00;;;;;;6183408;23;20338;-64
2021/05/28 12:20:55;;;;;;;1.88;1.65;;;19.10;59.40;;;;;;6182932;23;20001;-64
2021/05/28 12:23:33;;;;;;;1.70;1.60;;;19.20;60.40;;;;;;6182343;23;20064;-64
2021/05/28 12:26:04;;;;;;;1.65;1.48;;;19.30;61.20;;;;;;6183211;23;20013;-65
2021/05/28 12:28:35;;;;;;;2.90;2.17;;;19.50;59.70;;;;;;6183140;23;19997;-65
2021/05/28 12:31:12;;;;;;;1.65;1.48;;;19.60;58.20;;;;;;6182243;23;20009;-65
2021/05/28 12:33:40;;;;;;;1.77;1.45;;;19.60;59.30;;;;;;6156207;23;20063;-65
2021/05/28 12:36:08;;;;;;;2.50;1.52;;;19.70;59.70;;;;;;6182967;23;20430;-65
2021/05/28 12:38:35;;;;;;;1.80;1.70;;;19.80;59.10;;;;;;6182073;23;20000;-65
2021/05/28 12:41:02;;;;;;;2.47;1.70;;;19.80;57.30;;;;;;6183098;23;20092;-64
2021/05/28 12:43:29;;;;;;;2.38;1.70;;;19.70;57.20;;;;;;6156707;23;20325;-65
2021/05/28 12:45:56;;;;;;;2.72;1.65;;;19.70;59.10;;;;;;6182472;23;20001;-65
2021/05/28 12:48:40;;;;;;;3.70;1.45;;;19.80;58.00;;;;;;6182885;23;20533;-65